createdAt,value
2023-02-14T00:01:46.854Z,14.78
2023-02-14T00:04:13.367Z,14.77
2023-02-14T00:06:39.926Z,14.79
2023-02-14T00:09:06.761Z,14.78
2023-02-14T00:11:33.314Z,14.78
2023-02-14T00:13:59.983Z,14.79
2023-02-14T00:16:26.726Z,14.79
2023-02-14T00:18:53.216Z,14.76
2023-02-14T00:21:19.677Z,14.77
2023-02-14T00:23:46.165Z,14.76
2023-02-14T00:26:12.954Z,14.74
2023-02-14T00:28:39.502Z,14.74
2023-02-14T00:31:06.467Z,14.75
2023-02-14T00:33:33.129Z,14.73
2023-02-14T00:35:59.691Z,14.72
2023-02-14T00:38:26.483Z,14.73
2023-02-14T00:40:53.163Z,14.71
2023-02-14T00:43:19.868Z,14.70
2023-02-14T00:45:46.324Z,14.72
2023-02-14T00:48:13.041Z,14.71
2023-02-14T00:50:39.704Z,14.71
2023-02-14T00:53:06.501Z,14.71
2023-02-14T00:55:33.284Z,14.71
2023-02-14T00:57:59.728Z,14.70
2023-02-14T01:00:26.177Z,14.71
2023-02-14T01:02:52.779Z,14.70
2023-02-14T01:05:19.473Z,14.69
2023-02-14T01:07:46.056Z,14.68
2023-02-14T01:10:12.642Z,14.67
2023-02-14T01:12:39.388Z,14.66
2023-02-14T01:15:05.856Z,14.65
2023-02-14T01:17:32.387Z,14.65
2023-02-14T01:19:58.842Z,14.63
2023-02-14T01:22:25.467Z,14.66
2023-02-14T01:24:51.974Z,14.66
2023-02-14T01:27:18.677Z,14.63
2023-02-14T01:29:45.462Z,14.64
2023-02-14T01:32:12.063Z,14.63
2023-02-14T01:34:39.209Z,14.64
2023-02-14T01:37:05.961Z,14.63
2023-02-14T01:39:32.390Z,14.63
2023-02-14T01:41:59.294Z,14.63
2023-02-14T01:44:26.056Z,14.62
2023-02-14T01:46:52.478Z,14.60
2023-02-14T01:49:19.196Z,14.61
2023-02-14T01:51:45.830Z,14.58
2023-02-14T01:54:12.227Z,14.59
2023-02-14T01:56:39.277Z,14.60
2023-02-14T01:59:06.025Z,14.59
2023-02-14T02:01:32.461Z,14.59
2023-02-14T02:03:58.981Z,14.59
2023-02-14T02:06:25.673Z,14.58
2023-02-14T02:08:54.247Z,14.59
2023-02-14T02:11:20.637Z,14.57
2023-02-14T02:13:47.987Z,14.58
2023-02-14T02:16:14.666Z,14.58
2023-02-14T02:18:41.627Z,14.58
2023-02-14T02:21:08.106Z,14.58
2023-02-14T02:23:34.726Z,14.58
2023-02-14T02:26:01.178Z,14.56
2023-02-14T02:28:27.676Z,14.56
2023-02-14T02:30:54.216Z,14.55
2023-02-14T02:33:21.007Z,14.55
2023-02-14T02:35:47.510Z,14.54
2023-02-14T02:38:14.400Z,14.53
2023-02-14T02:40:41.256Z,14.54
2023-02-14T02:43:07.780Z,14.54
2023-02-14T02:45:34.395Z,14.55
2023-02-14T02:48:00.856Z,14.53
2023-02-14T02:50:27.919Z,14.53
2023-02-14T02:52:54.452Z,14.53
2023-02-14T02:55:22.030Z,14.53
2023-02-14T02:57:48.381Z,14.52
2023-02-14T03:00:15.497Z,14.51
2023-02-14T03:02:42.275Z,14.52
2023-02-14T03:05:08.990Z,14.51
2023-02-14T03:07:35.826Z,14.52
2023-02-14T03:10:02.503Z,14.51
2023-02-14T03:12:29.205Z,14.51
2023-02-14T03:14:56.229Z,14.50
2023-02-14T03:17:22.801Z,14.50
2023-02-14T03:19:49.240Z,14.49
2023-02-14T03:22:15.735Z,14.50
2023-02-14T03:24:42.283Z,14.49
2023-02-14T03:27:09.269Z,14.47
2023-02-14T03:29:35.922Z,14.49
2023-02-14T03:32:02.919Z,14.49
2023-02-14T03:34:29.913Z,14.48
2023-02-14T03:36:56.966Z,14.47
2023-02-14T03:39:24.266Z,14.46
2023-02-14T03:41:50.772Z,14.45
2023-02-14T03:44:17.148Z,14.44
2023-02-14T03:46:43.633Z,14.44
2023-02-14T03:49:10.299Z,14.45
2023-02-14T03:51:37.243Z,14.44
2023-02-14T03:54:03.718Z,14.44
2023-02-14T03:56:30.234Z,14.44
2023-02-14T03:58:56.820Z,14.43
2023-02-14T04:01:23.370Z,14.45
2023-02-14T04:03:50.191Z,14.43
2023-02-14T04:06:17.130Z,14.43
2023-02-14T04:08:43.643Z,14.43
2023-02-14T04:11:10.314Z,14.42
2023-02-14T04:13:36.869Z,14.41
2023-02-14T04:16:03.397Z,14.42
2023-02-14T04:18:29.888Z,14.41
2023-02-14T04:20:56.261Z,14.42
2023-02-14T04:23:22.661Z,14.42
2023-02-14T04:25:49.114Z,14.41
2023-02-14T04:28:16.119Z,14.39
2023-02-14T04:30:42.709Z,14.39
2023-02-14T04:33:09.393Z,14.38
2023-02-14T04:35:36.103Z,14.39
2023-02-14T04:38:02.734Z,14.39
2023-02-14T04:40:29.630Z,14.40
2023-02-14T04:42:56.380Z,14.39
2023-02-14T04:45:23.131Z,14.38
2023-02-14T04:47:49.503Z,14.37
2023-02-14T04:50:16.004Z,14.37
2023-02-14T04:52:42.585Z,14.36
2023-02-14T04:55:09.108Z,14.36
2023-02-14T04:57:35.726Z,14.36
2023-02-14T05:00:02.194Z,14.34
2023-02-14T05:02:28.903Z,14.37
2023-02-14T05:04:55.378Z,14.35
2023-02-14T05:07:21.764Z,14.33
2023-02-14T05:09:48.285Z,14.35
2023-02-14T05:12:14.908Z,14.33
2023-02-14T05:14:41.382Z,14.34
2023-02-14T05:17:07.962Z,14.33
2023-02-14T05:19:34.430Z,14.32
2023-02-14T05:22:00.885Z,14.33
2023-02-14T05:24:27.353Z,14.33
2023-02-14T05:26:54.621Z,14.32
2023-02-14T05:29:21.108Z,14.32
2023-02-14T05:31:48.209Z,14.33
2023-02-14T05:34:15.129Z,14.30
2023-02-14T05:36:42.412Z,14.30
2023-02-14T05:39:08.821Z,14.30
2023-02-14T05:41:35.210Z,14.30
2023-02-14T05:44:01.906Z,14.29
2023-02-14T05:46:28.748Z,14.31
2023-02-14T05:48:55.083Z,14.28
2023-02-14T05:51:21.648Z,14.30
2023-02-14T05:53:48.283Z,14.28
2023-02-14T05:56:15.189Z,14.28
2023-02-14T05:58:41.916Z,14.30
2023-02-14T06:01:08.924Z,14.29
2023-02-14T06:03:35.377Z,14.28
2023-02-14T06:06:02.182Z,14.28
2023-02-14T06:08:28.641Z,14.28
2023-02-14T06:10:55.113Z,14.28
2023-02-14T06:13:21.616Z,14.26
2023-02-14T06:15:48.518Z,14.28
2023-02-14T06:18:15.522Z,14.24
2023-02-14T06:20:42.077Z,14.28
2023-02-14T06:23:08.527Z,14.26
2023-02-14T06:25:35.331Z,14.26
2023-02-14T06:28:02.114Z,14.25
2023-02-14T06:30:29.126Z,14.26
2023-02-14T06:32:55.617Z,14.23
2023-02-14T06:35:22.093Z,14.24
2023-02-14T06:37:48.640Z,14.23
2023-02-14T06:40:15.147Z,14.23
2023-02-14T06:42:41.749Z,14.21
2023-02-14T06:45:08.148Z,14.21
2023-02-14T06:47:35.277Z,14.22
2023-02-14T06:50:01.777Z,14.20
2023-02-14T06:52:28.297Z,14.23
2023-02-14T06:54:54.884Z,14.22
2023-02-14T06:57:21.463Z,14.16
2023-02-14T06:59:47.863Z,14.21
2023-02-14T07:02:14.322Z,14.19
2023-02-14T07:04:40.877Z,14.21
2023-02-14T07:07:07.418Z,14.18
2023-02-14T07:09:33.908Z,14.20
2023-02-14T07:12:00.330Z,14.19
2023-02-14T07:14:26.715Z,14.18
2023-02-14T07:16:53.221Z,14.19
2023-02-14T07:19:19.654Z,14.16
2023-02-14T07:21:46.198Z,14.21
2023-02-14T07:24:12.624Z,14.17
2023-02-14T07:26:39.128Z,14.15
2023-02-14T07:29:05.625Z,14.16
2023-02-14T07:31:32.222Z,14.17
2023-02-14T07:33:58.744Z,14.17
2023-02-14T07:36:25.199Z,14.15
2023-02-14T07:38:51.661Z,14.17
2023-02-14T07:41:18.539Z,14.14
2023-02-14T07:43:45.118Z,14.13
2023-02-14T07:46:11.636Z,14.15
2023-02-14T07:48:38.123Z,14.13
2023-02-14T07:51:04.590Z,14.17
2023-02-14T07:53:30.975Z,14.17
2023-02-14T07:55:57.421Z,14.19
2023-02-14T07:58:24.204Z,14.20
2023-02-14T08:00:50.676Z,14.22
2023-02-14T08:03:17.172Z,14.17
2023-02-14T08:05:43.749Z,14.20
2023-02-14T08:08:10.238Z,14.22
2023-02-14T08:10:36.728Z,14.23
2023-02-14T08:13:03.216Z,14.22
2023-02-14T08:15:29.659Z,14.23
2023-02-14T08:17:58.612Z,14.00
2023-02-14T08:20:25.111Z,14.13
2023-02-14T08:22:51.699Z,14.15
2023-02-14T08:25:18.128Z,14.10
2023-02-14T08:27:44.584Z,14.15
2023-02-14T08:30:11.562Z,14.13
2023-02-14T08:32:38.603Z,14.06
2023-02-14T08:35:05.697Z,13.96
2023-02-14T08:37:32.406Z,14.01
2023-02-14T08:39:58.883Z,13.98
2023-02-14T08:42:25.313Z,13.94
2023-02-14T08:44:51.952Z,13.91
2023-02-14T08:47:18.384Z,13.86
2023-02-14T08:49:45.048Z,14.09
2023-02-14T08:52:11.609Z,14.07
2023-02-14T08:54:37.982Z,14.09
2023-02-14T08:57:04.358Z,14.06
2023-02-14T08:59:30.772Z,14.05
2023-02-14T09:01:57.317Z,14.16
2023-02-14T09:04:23.822Z,14.17
2023-02-14T09:06:50.555Z,14.15
2023-02-14T09:09:17.200Z,14.16
2023-02-14T09:11:43.907Z,14.12
2023-02-14T09:14:10.366Z,14.12
2023-02-14T09:16:37.009Z,14.08
2023-02-14T09:19:05.723Z,14.08
2023-02-14T09:21:32.102Z,14.04
2023-02-14T09:23:58.571Z,14.05
2023-02-14T09:26:25.082Z,14.06
2023-02-14T09:28:51.490Z,14.04
2023-02-14T09:31:17.946Z,14.04
2023-02-14T09:33:44.480Z,14.01
2023-02-14T09:36:10.975Z,14.00
2023-02-14T09:38:37.429Z,14.01
2023-02-14T09:41:04.040Z,14.01
2023-02-14T09:43:30.568Z,14.00
2023-02-14T09:45:57.119Z,14.01
2023-02-14T09:48:23.810Z,13.97
2023-02-14T09:50:50.394Z,13.96
2023-02-14T09:53:16.728Z,13.97
2023-02-14T09:55:43.452Z,13.98
2023-02-14T09:58:09.998Z,13.97
2023-02-14T10:00:36.493Z,13.97
2023-02-14T10:03:03.233Z,13.97
2023-02-14T10:05:29.902Z,13.97
2023-02-14T10:07:56.316Z,13.97
2023-02-14T10:10:22.798Z,13.96
2023-02-14T10:12:49.353Z,13.96
2023-02-14T10:15:15.849Z,13.95
2023-02-14T10:17:42.432Z,13.93
2023-02-14T10:20:08.943Z,13.95
2023-02-14T10:22:35.401Z,13.93
2023-02-14T10:25:01.879Z,13.91
2023-02-14T10:27:28.247Z,13.91
2023-02-14T10:29:55.515Z,13.91
2023-02-14T10:32:22.167Z,13.91
2023-02-14T10:34:48.746Z,13.90
2023-02-14T10:37:15.142Z,13.91
2023-02-14T10:39:41.600Z,13.90
2023-02-14T10:42:08.009Z,13.91
2023-02-14T10:44:34.334Z,13.90
2023-02-14T10:47:00.636Z,13.90
2023-02-14T10:49:27.181Z,13.90
2023-02-14T10:51:53.571Z,13.91
2023-02-14T10:54:20.003Z,13.88
2023-02-14T10:56:46.584Z,13.88
2023-02-14T10:59:13.221Z,13.87
2023-02-14T11:01:39.871Z,13.88
2023-02-14T11:04:06.385Z,13.87
2023-02-14T11:06:32.701Z,13.88
2023-02-14T11:08:59.075Z,13.89
2023-02-14T11:11:25.431Z,13.87
2023-02-14T11:13:51.817Z,13.88
2023-02-14T11:16:18.620Z,13.87
2023-02-14T11:18:45.515Z,13.88
2023-02-14T11:21:23.121Z,13.88
2023-02-14T11:23:50.534Z,13.91
2023-02-14T11:26:17.312Z,13.89
2023-02-14T11:28:43.845Z,13.90
2023-02-14T11:31:10.446Z,13.90
2023-02-14T11:33:37.176Z,13.91
2023-02-14T11:36:03.896Z,13.88
2023-02-14T11:38:30.273Z,13.90
2023-02-14T11:40:57.126Z,13.89
2023-02-14T11:43:23.622Z,13.89
2023-02-14T11:45:50.188Z,13.88
2023-02-14T11:48:22.045Z,13.89
2023-02-14T11:50:51.417Z,13.88
2023-02-14T11:53:18.018Z,13.89
2023-02-14T11:55:44.635Z,13.88
2023-02-14T11:58:11.069Z,13.88
2023-02-14T12:00:37.558Z,13.89
2023-02-14T12:03:04.128Z,13.87
2023-02-14T12:05:30.538Z,13.89
2023-02-14T12:07:57.256Z,13.88
2023-02-14T12:10:23.768Z,13.89
2023-02-14T12:12:50.372Z,13.88
2023-02-14T12:15:16.810Z,13.87
2023-02-14T12:17:43.248Z,13.87
2023-02-14T12:20:09.950Z,13.87
2023-02-14T12:22:36.656Z,13.82
2023-02-14T12:25:03.150Z,13.83
2023-02-14T12:27:29.597Z,13.86
2023-02-14T12:29:56.122Z,13.86
2023-02-14T12:32:22.630Z,13.86
2023-02-14T12:34:49.077Z,13.86
2023-02-14T12:37:15.668Z,13.86
2023-02-14T12:39:42.307Z,13.86
2023-02-14T12:42:08.940Z,13.86
2023-02-14T12:44:35.488Z,13.85
2023-02-14T12:47:02.051Z,13.84
2023-02-14T12:49:28.525Z,13.80
2023-02-14T12:51:55.031Z,13.80
2023-02-14T12:54:21.493Z,13.82
2023-02-14T12:56:48.156Z,13.83
2023-02-14T12:59:14.685Z,13.84
2023-02-14T13:01:41.123Z,13.84
2023-02-14T13:04:07.720Z,13.82
2023-02-14T13:06:34.529Z,13.80
2023-02-14T13:09:01.297Z,13.80
2023-02-14T13:11:27.808Z,13.81
2023-02-14T13:13:54.345Z,13.85
2023-02-14T13:16:20.997Z,13.88
2023-02-14T13:18:47.535Z,13.92
2023-02-14T13:21:13.941Z,13.97
2023-02-14T13:23:40.420Z,14.01
2023-02-14T13:26:06.755Z,14.08
2023-02-14T13:28:33.672Z,14.15
2023-02-14T13:31:00.693Z,14.21
2023-02-14T13:33:27.598Z,14.29
2023-02-14T13:35:54.189Z,14.37
2023-02-14T13:38:21.181Z,14.44
2023-02-14T13:40:47.601Z,14.49
2023-02-14T13:43:14.041Z,14.58
2023-02-14T13:45:41.169Z,14.65
2023-02-14T13:48:07.597Z,14.74
2023-02-14T13:50:35.099Z,14.82
2023-02-14T13:53:01.920Z,14.89
2023-02-14T13:55:28.571Z,14.98
2023-02-14T13:57:55.151Z,15.04
2023-02-14T14:00:21.575Z,15.13
2023-02-14T14:02:48.081Z,15.21
2023-02-14T14:05:14.435Z,15.30
2023-02-14T14:07:40.780Z,15.38
2023-02-14T14:10:07.160Z,15.46
2023-02-14T14:12:34.834Z,15.54
2023-02-14T14:15:01.140Z,15.63
2023-02-14T14:17:27.838Z,15.72
2023-02-14T14:19:54.292Z,15.79
2023-02-14T14:22:20.658Z,15.87
2023-02-14T14:24:47.107Z,15.92
2023-02-14T14:27:13.631Z,16.02
2023-02-14T14:29:40.332Z,16.07
2023-02-14T14:32:06.728Z,16.15
2023-02-14T14:34:33.214Z,16.20
2023-02-14T14:36:59.600Z,16.28
2023-02-14T14:39:26.136Z,16.35
2023-02-14T14:41:52.729Z,16.40
2023-02-14T14:44:19.441Z,16.46
2023-02-14T14:46:45.963Z,16.52
2023-02-14T14:49:12.576Z,16.56
2023-02-14T14:51:39.150Z,16.63
2023-02-14T14:54:05.735Z,16.69
2023-02-14T14:56:32.491Z,16.74
2023-02-14T14:58:59.123Z,16.80
2023-02-14T15:01:25.871Z,16.84
2023-02-14T15:03:52.416Z,16.88
2023-02-14T15:06:19.015Z,16.93
2023-02-14T15:08:46.682Z,16.98
2023-02-14T15:11:13.030Z,17.00
2023-02-14T15:13:39.818Z,17.04
2023-02-14T15:16:06.306Z,17.07
2023-02-14T15:18:32.754Z,17.10
2023-02-14T15:20:59.593Z,17.13
2023-02-14T15:23:26.192Z,17.14
2023-02-14T15:25:52.548Z,17.16
2023-02-14T15:28:19.058Z,17.19
2023-02-14T15:30:45.492Z,17.21
2023-02-14T15:33:12.267Z,17.22
2023-02-14T15:35:38.868Z,17.22
2023-02-14T15:38:05.562Z,17.25
2023-02-14T15:40:31.935Z,17.25
2023-02-14T15:42:58.480Z,17.25
2023-02-14T15:45:24.843Z,17.26
2023-02-14T15:47:51.263Z,17.26
2023-02-14T15:50:17.633Z,17.24
2023-02-14T15:52:44.043Z,17.25
2023-02-14T15:55:10.572Z,17.24
2023-02-14T15:57:37.157Z,17.22
2023-02-14T16:00:03.609Z,17.21
2023-02-14T16:02:30.039Z,17.22
2023-02-14T16:04:56.816Z,17.20
2023-02-14T16:07:23.152Z,17.19
2023-02-14T16:09:49.956Z,17.19
2023-02-14T16:12:16.995Z,17.17
2023-02-14T16:14:43.331Z,17.17
2023-02-14T16:17:09.855Z,17.17
2023-02-14T16:19:36.905Z,17.16
2023-02-14T16:22:03.397Z,17.15
2023-02-14T16:24:29.882Z,17.14
2023-02-14T16:26:56.438Z,17.14
2023-02-14T16:29:22.803Z,17.11
2023-02-14T16:32:12.089Z,17.10
2023-02-14T16:34:35.518Z,17.09
2023-02-14T16:37:02.030Z,17.08
2023-02-14T16:39:28.480Z,17.07
2023-02-14T16:41:55.307Z,17.06
2023-02-14T16:44:22.050Z,17.08
2023-02-14T16:46:48.709Z,17.05
2023-02-14T16:49:15.098Z,17.04
2023-02-14T16:51:41.548Z,17.04
2023-02-14T16:54:08.158Z,17.03
2023-02-14T16:56:34.521Z,17.00
2023-02-14T16:59:00.851Z,17.00
2023-02-14T17:01:27.230Z,16.99
2023-02-14T17:03:53.695Z,16.99
2023-02-14T17:06:20.055Z,16.98
2023-02-14T17:08:46.532Z,16.96
2023-02-14T17:11:12.819Z,16.95
2023-02-14T17:13:41.071Z,16.95
2023-02-14T17:16:07.714Z,16.92
2023-02-14T17:18:34.181Z,16.92
2023-02-14T17:21:01.093Z,16.92
2023-02-14T17:23:28.073Z,16.91
2023-02-14T17:25:54.668Z,16.90
2023-02-14T17:28:21.014Z,16.89
2023-02-14T17:30:47.463Z,16.88
2023-02-14T17:33:14.316Z,16.88
2023-02-14T17:35:40.944Z,16.86
2023-02-14T17:38:07.332Z,16.85
2023-02-14T17:40:33.702Z,16.84
2023-02-14T17:43:00.276Z,16.83
2023-02-14T17:45:26.758Z,16.83
2023-02-14T17:47:53.084Z,16.82
2023-02-14T17:50:19.643Z,16.80
2023-02-14T17:52:46.308Z,16.78
2023-02-14T17:55:12.869Z,16.79
2023-02-14T17:57:39.280Z,16.78
2023-02-14T18:00:05.750Z,16.77
2023-02-14T18:02:32.104Z,16.74
2023-02-14T18:04:58.667Z,16.75
2023-02-14T18:07:25.034Z,16.74
2023-02-14T18:09:51.521Z,16.71
2023-02-14T18:12:18.280Z,16.72
2023-02-14T18:14:45.144Z,16.74
2023-02-14T18:17:11.855Z,16.80
2023-02-14T18:19:38.841Z,16.81
2023-02-14T18:22:05.395Z,16.84
2023-02-14T18:24:31.834Z,16.90
2023-02-14T18:26:58.350Z,16.97
2023-02-14T18:29:24.944Z,17.04
2023-02-14T18:31:51.341Z,17.11
2023-02-14T18:34:18.058Z,17.18
2023-02-14T18:36:44.833Z,17.23
2023-02-14T18:39:11.409Z,17.31
2023-02-14T18:41:37.789Z,17.37
2023-02-14T18:44:04.591Z,17.41
2023-02-14T18:46:31.003Z,17.44
2023-02-14T18:48:57.564Z,17.49
2023-02-14T18:51:24.089Z,17.54
2023-02-14T18:53:50.399Z,17.53
2023-02-14T18:56:16.747Z,17.55
2023-02-14T18:58:43.089Z,17.54
2023-02-14T19:01:09.571Z,17.54
2023-02-14T19:03:36.535Z,17.58
2023-02-14T19:06:03.154Z,17.59
2023-02-14T19:08:29.465Z,17.60
2023-02-14T19:10:56.181Z,17.63
2023-02-14T19:13:22.692Z,17.66
2023-02-14T19:15:49.818Z,17.70
2023-02-14T19:18:16.400Z,17.72
2023-02-14T19:20:42.906Z,17.78
2023-02-14T19:23:09.618Z,17.81
2023-02-14T19:25:36.407Z,17.83
2023-02-14T19:28:03.276Z,17.88
2023-02-14T19:30:30.230Z,17.90
2023-02-14T19:32:57.190Z,17.95
2023-02-14T19:35:23.884Z,17.99
2023-02-14T19:37:50.302Z,18.04
2023-02-14T19:40:16.782Z,18.08
2023-02-14T19:42:43.667Z,18.11
2023-02-14T19:45:10.013Z,18.14
2023-02-14T19:47:46.514Z,18.19
2023-02-14T19:50:14.220Z,18.23
2023-02-14T19:52:40.895Z,18.26
2023-02-14T19:55:07.450Z,18.30
2023-02-14T19:57:33.883Z,18.32
2023-02-14T20:00:00.557Z,18.37
2023-02-14T20:02:27.252Z,18.39
2023-02-14T20:04:53.879Z,18.40
2023-02-14T20:07:20.574Z,18.45
2023-02-14T20:09:47.014Z,18.45
2023-02-14T20:12:13.479Z,18.50
2023-02-14T20:14:50.980Z,18.53
2023-02-14T20:17:18.107Z,18.54
2023-02-14T20:19:45.171Z,18.59
2023-02-14T20:22:11.560Z,18.60
2023-02-14T20:24:38.423Z,18.58
2023-02-14T20:27:04.884Z,18.57
2023-02-14T20:29:31.732Z,18.58
2023-02-14T20:31:58.287Z,18.61
2023-02-14T20:34:24.721Z,18.62
2023-02-14T20:36:51.098Z,18.63
2023-02-14T20:39:17.408Z,18.66
2023-02-14T20:41:44.036Z,18.72
2023-02-14T20:44:10.404Z,18.72
2023-02-14T20:46:37.059Z,18.75
2023-02-14T20:49:03.628Z,18.79
2023-02-14T20:51:30.051Z,18.84
2023-02-14T20:53:56.917Z,18.79
2023-02-14T20:56:24.018Z,18.82
2023-02-14T20:58:50.414Z,18.77
2023-02-14T21:01:17.113Z,18.84
2023-02-14T21:03:47.780Z,18.89
2023-02-14T21:06:16.238Z,18.91
2023-02-14T21:08:42.692Z,18.97
2023-02-14T21:11:09.500Z,19.02
2023-02-14T21:13:36.452Z,19.06
2023-02-14T21:16:03.228Z,19.09
2023-02-14T21:18:29.879Z,19.15
2023-02-14T21:20:56.912Z,19.15
2023-02-14T21:23:23.745Z,19.18
2023-02-14T21:25:50.282Z,19.23
2023-02-14T21:28:17.223Z,19.22
2023-02-14T21:30:43.983Z,19.26
2023-02-14T21:33:10.614Z,19.27
2023-02-14T21:35:37.054Z,19.25
2023-02-14T21:38:03.667Z,19.30
2023-02-14T21:40:30.087Z,19.36
2023-02-14T21:42:57.124Z,19.37
2023-02-14T21:45:23.885Z,19.40
2023-02-14T21:47:50.365Z,19.42
2023-02-14T21:50:16.915Z,19.46
2023-02-14T21:52:46.094Z,19.41
2023-02-14T21:55:13.022Z,19.44
2023-02-14T21:57:40.020Z,19.50
2023-02-14T22:00:06.986Z,19.47
2023-02-14T22:02:33.379Z,19.51
2023-02-14T22:05:00.959Z,19.57
2023-02-14T22:07:27.858Z,19.56
2023-02-14T22:09:54.278Z,19.62
2023-02-14T22:12:20.989Z,19.65
2023-02-14T22:14:47.324Z,19.62
2023-02-14T22:17:14.311Z,19.66
2023-02-14T22:19:41.132Z,19.70
2023-02-14T22:22:08.052Z,19.71
2023-02-14T22:24:34.603Z,19.73
2023-02-14T22:27:01.144Z,19.72
2023-02-14T22:29:27.507Z,19.72
2023-02-14T22:31:54.403Z,19.71
2023-02-14T22:34:21.038Z,19.68
2023-02-14T22:36:47.812Z,19.67
2023-02-14T22:39:14.485Z,19.61
2023-02-14T22:41:40.928Z,19.59
2023-02-14T22:44:08.786Z,19.43
2023-02-14T22:46:35.558Z,19.09
2023-02-14T22:49:02.082Z,19.11
2023-02-14T22:51:28.997Z,19.11
2023-02-14T22:53:55.635Z,19.11
2023-02-14T22:56:22.652Z,19.11
2023-02-14T22:58:49.498Z,19.09
2023-02-14T23:01:16.274Z,19.09
2023-02-14T23:03:42.852Z,19.09
2023-02-14T23:06:09.909Z,19.10
2023-02-14T23:08:36.299Z,19.09
2023-02-14T23:11:03.069Z,19.10
2023-02-14T23:13:30.101Z,19.09
2023-02-14T23:15:56.748Z,19.11
2023-02-14T23:18:28.904Z,19.09
2023-02-14T23:20:55.739Z,19.06
2023-02-14T23:23:22.426Z,19.05
2023-02-14T23:25:49.384Z,19.05
2023-02-14T23:28:16.341Z,19.04
2023-02-14T23:30:42.741Z,19.01
2023-02-14T23:33:09.335Z,18.99
2023-02-14T23:35:36.122Z,18.99
2023-02-14T23:38:02.961Z,18.98
2023-02-14T23:40:29.434Z,18.93
2023-02-14T23:42:55.982Z,18.90
2023-02-14T23:45:22.510Z,18.90
2023-02-14T23:47:49.010Z,18.85
2023-02-14T23:50:15.394Z,18.84
2023-02-14T23:52:41.963Z,18.85
2023-02-14T23:55:08.674Z,18.79
2023-02-14T23:57:35.268Z,18.74
